Time;durP1;ratioP1;P1;durP2;ratioP2;P2;SDS_P1;SDS_P2;PMS_P1;PMS_P2;Temp;Humidity;BMP_temperature;BMP_pressure;BME280_temperature;BME280_humidity;BME280_pressure;Samples;Min_cycle;Max_cycle;Signal;HPM_P1;HPM_P2
2023/01/19 00:00:32;;;;;;;;;;;;;;;-0.10;72.25;98894.38;1087313;54;20483;-78
2023/01/19 00:01:33;;;;;;;;;;;;;;;-0.11;72.31;98893.50;1087378;54;19926;-78
2023/01/19 00:02:37;;;;;;;;;;;;;;;-0.02;72.30;98897.31;1087316;54;19950;-78
2023/01/19 00:03:38;;;;;;;;;;;;;;;0.04;72.21;98893.41;1087219;54;19946;-77
2023/01/19 00:04:41;;;;;;;;;;;;;;;0.06;72.05;98900.22;1086956;54;19988;-78
2023/01/19 00:05:43;;;;;;;;;;;;;;;0.10;71.85;98899.06;1087346;54;19947;-78
2023/01/19 00:06:47;;;;;;;;;;;;;;;0.10;71.67;98906.13;1087299;54;19985;-78
2023/01/19 00:07:50;;;;;;;;;;;;;;;0.08;71.73;98893.09;1087417;54;19962;-78
2023/01/19 00:08:54;;;;;;;;;;;;;;;0.09;72.02;98902.66;1086196;54;20368;-78
2023/01/19 00:09:55;;;;;;;;;;;;;;;0.09;71.86;98899.19;1086037;54;19977;-77
2023/01/19 00:10:59;;;;;;;;;;;;;;;-0.02;71.98;98898.13;1086302;54;19947;-78
2023/01/19 00:12:00;;;;;;;;;;;;;;;0.01;72.25;98891.00;1086300;54;19947;-78
2023/01/19 00:13:04;;;;;;;;;;;;;;;0.03;72.01;98895.19;1086190;54;19950;-78
2023/01/19 00:14:05;;;;;;;;;;;;;;;0.07;71.91;98899.28;1086465;39;20372;-78
2023/01/19 00:15:09;;;;;;;;;;;;;;;0.04;71.71;98901.28;1086369;39;20394;-79
2023/01/19 00:16:10;;;;;;;;;;;;;;;0.01;71.84;98897.06;1086146;54;19954;-78
2023/01/19 00:17:14;;;;;;;;;;;;;;;-0.08;72.23;98900.31;1086200;54;19991;-78
2023/01/19 00:18:15;;;;;;;;;;;;;;;-0.16;72.62;98900.88;1085941;54;19946;-78
2023/01/19 00:19:19;;;;;;;;;;;;;;;-0.20;72.27;98900.25;1085983;54;20043;-77
2023/01/19 00:20:20;;;;;;;;;;;;;;;-0.19;72.27;98901.06;1087151;39;20404;-77
2023/01/19 00:21:24;;;;;;;;;;;;;;;-0.17;72.33;98905.28;1087846;39;20419;-78
2023/01/19 00:22:25;;;;;;;;;;;;;;;-0.14;72.53;98906.00;1086399;54;19957;-78
2023/01/19 00:23:31;;;;;;;;;;;;;;;-0.17;72.34;98902.63;1086209;39;20313;-78
2023/01/19 00:24:32;;;;;;;;;;;;;;;-0.29;72.34;98906.13;1085693;54;19946;-77
2023/01/19 00:25:41;;;;;;;;;;;;;;;-0.32;72.85;98906.31;1087805;39;20333;-78
2023/01/19 00:26:44;;;;;;;;;;;;;;;-0.30;73.01;98908.84;1085724;47;20744;-77
2023/01/19 00:27:49;;;;;;;;;;;;;;;-0.33;72.85;98907.25;1085635;54;19947;-78
2023/01/19 00:28:53;;;;;;;;;;;;;;;-0.35;72.97;98910.00;1085769;54;19957;-77
2023/01/19 00:29:54;;;;;;;;;;;;;;;-0.32;73.03;98922.91;1085716;54;20420;-78
2023/01/19 00:30:58;;;;;;;;;;;;;;;-0.31;72.99;98910.63;1086060;54;20520;-78
2023/01/19 00:31:59;;;;;;;;;;;;;;;-0.39;72.95;98916.38;1089201;39;20365;-80
2023/01/19 00:33:04;;;;;;;;;;;;;;;-0.30;72.92;98906.22;1086711;54;19950;-78
2023/01/19 00:34:06;;;;;;;;;;;;;;;-0.43;72.88;98912.31;1086789;54;19953;-78
2023/01/19 00:35:10;;;;;;;;;;;;;;;-0.44;73.09;98909.75;1087075;54;19997;-77
2023/01/19 00:36:11;;;;;;;;;;;;;;;-0.43;73.10;98908.81;1087155;54;19943;-80
2023/01/19 00:37:15;;;;;;;;;;;;;;;-0.40;72.82;98903.38;1085991;54;20110;-77
2023/01/19 00:38:16;;;;;;;;;;;;;;;-0.41;73.00;98913.00;1085806;54;20449;-78
2023/01/19 00:39:23;;;;;;;;;;;;;;;-0.41;73.15;98901.69;1085720;54;19946;-78
2023/01/19 00:40:24;;;;;;;;;;;;;;;-0.38;73.28;98912.00;1088409;31;20448;-77
2023/01/19 00:42:44;;;;;;;;;;;;;;;-0.24;72.64;98913.69;1085583;54;19954;-77
2023/01/19 00:43:45;;;;;;;;;;;;;;;-0.22;72.46;98902.13;1085918;54;20014;-78
2023/01/19 00:44:49;;;;;;;;;;;;;;;-0.20;72.52;98902.88;1085749;54;19945;-77
2023/01/19 00:45:50;;;;;;;;;;;;;;;-0.16;72.21;98906.13;1085780;54;19970;-77
2023/01/19 00:46:54;;;;;;;;;;;;;;;-0.23;72.51;98904.84;1085729;54;19955;-77
2023/01/19 00:47:56;;;;;;;;;;;;;;;-0.20;72.29;98905.50;1086574;54;19942;-77
2023/01/19 00:48:59;;;;;;;;;;;;;;;-0.18;72.43;98913.25;1087243;54;19934;-77
2023/01/19 00:50:00;;;;;;;;;;;;;;;-0.24;72.35;98909.25;1087712;54;19973;-77
2023/01/19 00:51:13;;;;;;;;;;;;;;;-0.24;72.46;98913.69;1087593;54;19970;-80
2023/01/19 00:52:14;;;;;;;;;;;;;;;-0.30;72.63;98912.31;1087401;54;19945;-78
2023/01/19 00:53:24;;;;;;;;;;;;;;;-0.26;72.56;98905.91;1087610;54;20010;-78
2023/01/19 00:54:27;;;;;;;;;;;;;;;-0.27;72.54;98913.88;1086027;54;19981;-78
2023/01/19 00:55:32;;;;;;;;;;;;;;;-0.30;72.72;98914.94;1085944;54;19962;-77
2023/01/19 00:56:33;;;;;;;;;;;;;;;-0.27;72.83;98919.97;1085782;54;19946;-79
2023/01/19 00:57:36;;;;;;;;;;;;;;;-0.18;72.56;98911.47;1085872;54;19998;-78
2023/01/19 00:58:37;;;;;;;;;;;;;;;-0.16;72.35;98917.47;1087664;47;19939;-77
2023/01/19 00:59:42;;;;;;;;;;;;;;;-0.11;72.35;98914.53;1087419;54;19962;-80
2023/01/19 01:00:46;;;;;;;;;;;;;;;-0.07;72.11;98915.16;1087454;54;19946;-78
2023/01/19 01:01:48;;;;;;;;;;;;;;;-0.02;72.06;98913.06;1087344;54;19950;-78
2023/01/19 01:02:53;;;;;;;;;;;;;;;-0.02;71.91;98916.53;1087104;54;19943;-77
2023/01/19 01:03:54;;;;;;;;;;;;;;;-0.03;72.33;98920.09;1087313;54;19946;-79
2023/01/19 01:05:01;;;;;;;;;;;;;;;-0.12;72.04;98917.25;1087116;54;19943;-77
2023/01/19 01:06:03;;;;;;;;;;;;;;;-0.10;72.22;98920.63;1090871;47;19950;-77
2023/01/19 01:07:06;;;;;;;;;;;;;;;-0.11;72.28;98921.56;1085716;54;19974;-78
2023/01/19 01:08:07;;;;;;;;;;;;;;;-0.10;72.39;98924.09;1086483;39;20372;-78
2023/01/19 01:09:13;;;;;;;;;;;;;;;-0.17;72.24;98915.78;1086274;54;20030;-78
2023/01/19 01:10:17;;;;;;;;;;;;;;;-0.13;72.38;98920.84;1086506;39;20410;-77
2023/01/19 01:11:21;;;;;;;;;;;;;;;-0.14;72.35;98919.16;1086754;39;20361;-78
2023/01/19 01:12:22;;;;;;;;;;;;;;;-0.19;72.81;98924.72;1086295;54;20492;-77
2023/01/19 01:13:26;;;;;;;;;;;;;;;-0.23;72.58;98921.47;1085935;54;19947;-78
2023/01/19 01:14:27;;;;;;;;;;;;;;;-0.20;72.98;98921.25;1086197;54;19977;-78
2023/01/19 01:15:31;;;;;;;;;;;;;;;-0.19;72.80;98922.91;1086288;54;20476;-78
2023/01/19 01:16:32;;;;;;;;;;;;;;;-0.22;72.72;98925.78;1086768;54;19970;-78
2023/01/19 01:17:46;;;;;;;;;;;;;;;-0.25;72.96;98920.72;1086656;54;20451;-77
2023/01/19 01:18:50;;;;;;;;;;;;;;;-0.27;72.78;98922.59;1086294;54;20030;-78
2023/01/19 01:19:53;;;;;;;;;;;;;;;-0.27;72.96;98919.97;1086949;54;19951;-80
2023/01/19 01:21:02;;;;;;;;;;;;;;;-0.27;72.96;98930.47;1088532;46;19938;-78
2023/01/19 01:22:03;;;;;;;;;;;;;;;-0.33;73.07;98934.34;1086519;54;19951;-78
2023/01/19 01:23:07;;;;;;;;;;;;;;;-0.36;73.33;98933.72;1086382;54;19939;-78
2023/01/19 01:24:08;;;;;;;;;;;;;;;-0.45;73.41;98931.72;1086342;54;19973;-78
2023/01/19 01:25:12;;;;;;;;;;;;;;;-0.48;73.45;98933.63;1086532;54;19953;-78
2023/01/19 01:26:15;;;;;;;;;;;;;;;-0.53;73.54;98929.59;1087317;39;20372;-78
2023/01/19 01:27:19;;;;;;;;;;;;;;;-0.55;73.92;98942.00;1090176;39;20895;-77
2023/01/19 01:28:20;;;;;;;;;;;;;;;-0.59;74.00;98932.63;1088667;54;19950;-77
2023/01/19 01:29:24;;;;;;;;;;;;;;;-0.64;73.71;98932.91;1088554;54;19947;-77
2023/01/19 01:30:25;;;;;;;;;;;;;;;-0.67;74.00;98935.78;1088776;46;19939;-77
2023/01/19 01:31:29;;;;;;;;;;;;;;;-0.66;74.17;98937.47;1088465;54;19931;-77
2023/01/19 01:32:30;;;;;;;;;;;;;;;-0.64;73.97;98943.44;1088443;54;19948;-78
2023/01/19 01:33:34;;;;;;;;;;;;;;;-0.67;74.18;98939.22;1088023;54;19950;-78
2023/01/19 01:34:35;;;;;;;;;;;;;;;-0.70;74.17;98938.59;1086275;54;19998;-78
2023/01/19 01:35:39;;;;;;;;;;;;;;;-0.72;74.46;98936.06;1085998;54;20459;-78
2023/01/19 01:36:40;;;;;;;;;;;;;;;-0.75;74.47;98940.66;1086871;39;20466;-78
2023/01/19 01:37:44;;;;;;;;;;;;;;;-0.77;74.49;98939.94;1086887;54;19957;-78
2023/01/19 01:38:45;;;;;;;;;;;;;;;-0.81;74.84;98940.13;1086672;54;19947;-78
2023/01/19 01:39:49;;;;;;;;;;;;;;;-0.80;74.59;98948.81;1087991;39;20352;-78
2023/01/19 01:40:53;;;;;;;;;;;;;;;-0.81;74.62;98939.28;1086765;54;19943;-78
2023/01/19 01:41:56;;;;;;;;;;;;;;;-0.87;74.66;98948.41;1086858;54;19950;-78
2023/01/19 01:43:01;;;;;;;;;;;;;;;-0.92;74.58;98947.84;1087463;39;20360;-79
2023/01/19 01:44:07;;;;;;;;;;;;;;;-0.92;74.68;98947.84;1087043;54;19950;-78
2023/01/19 01:45:22;;;;;;;;;;;;;;;-0.93;74.83;98954.03;1087000;54;19973;-78
2023/01/19 01:46:27;;;;;;;;;;;;;;;-0.97;75.09;98953.38;1087383;54;19935;-79
2023/01/19 01:47:30;;;;;;;;;;;;;;;-0.91;74.97;98956.56;1087258;54;19950;-78
2023/01/19 01:48:33;;;;;;;;;;;;;;;-1.00;75.10;98952.75;1087120;54;19947;-79
2023/01/19 01:49:35;;;;;;;;;;;;;;;-0.99;75.40;98950.00;1087545;54;20436;-79
2023/01/19 01:51:22;;;;;;;;;;;;;;;-1.01;75.19;98956.31;1087516;54;19949;-78
2023/01/19 01:52:03;;;;;;;;;;;;;;;-0.95;74.96;98953.31;1087296;54;19973;-79
2023/01/19 01:53:10;;;;;;;;;;;;;;;-0.93;75.04;98948.78;1087227;54;20061;-78
2023/01/19 01:54:15;;;;;;;;;;;;;;;-0.90;75.04;98950.38;1086918;54;20538;-78
2023/01/19 01:55:20;;;;;;;;;;;;;;;-0.89;75.23;98952.91;1087304;54;19951;-77
2023/01/19 01:56:25;;;;;;;;;;;;;;;-0.90;75.27;98948.59;1087889;54;19938;-82
2023/01/19 01:57:31;;;;;;;;;;;;;;;-0.82;74.93;98951.56;1088165;54;19954;-78
2023/01/19 01:58:33;;;;;;;;;;;;;;;-0.79;74.96;98951.38;1087678;54;19957;-78
2023/01/19 01:59:39;;;;;;;;;;;;;;;-0.67;74.52;98939.22;1086969;54;19977;-78
2023/01/19 02:03:14;;;;;;;;;;;;;;;-0.48;73.42;98945.88;1087031;54;19966;-78
2023/01/19 02:04:19;;;;;;;;;;;;;;;-0.59;73.84;98941.34;1087381;54;19953;-77
2023/01/19 02:05:21;;;;;;;;;;;;;;;-0.48;73.78;98948.50;1086596;54;20692;-78
2023/01/19 02:06:26;;;;;;;;;;;;;;;-0.48;73.76;98944.13;1086766;54;19993;-78
2023/01/19 02:14:01;;;;;;;;;;;;;;;-0.38;72.57;98935.63;1086313;54;19954;-78
2023/01/19 02:15:03;;;;;;;;;;;;;;;-0.43;72.76;98935.09;1086474;54;19953;-78
2023/01/19 02:16:08;;;;;;;;;;;;;;;-0.55;72.84;98942.81;1086194;54;19953;-77
2023/01/19 02:17:09;;;;;;;;;;;;;;;-0.63;73.06;98940.72;1085957;54;19974;-78
2023/01/19 02:18:13;;;;;;;;;;;;;;;-0.64;73.02;98936.41;1085617;54;19958;-77
2023/01/19 02:19:19;;;;;;;;;;;;;;;-0.61;73.25;98942.41;1085698;54;19951;-77
2023/01/19 02:20:22;;;;;;;;;;;;;;;-0.47;73.11;98937.91;1085598;54;19946;-78
2023/01/19 02:21:32;;;;;;;;;;;;;;;-0.45;72.80;98931.72;1085778;54;19938;-78
2023/01/19 02:22:37;;;;;;;;;;;;;;;-0.45;72.57;98936.97;1087339;54;19951;-78
2023/01/19 02:23:46;;;;;;;;;;;;;;;-0.41;72.43;98938.44;1086595;54;19956;-78
2023/01/19 02:24:48;;;;;;;;;;;;;;;-0.36;72.39;98931.94;1086550;54;19950;-78
2023/01/19 02:25:53;;;;;;;;;;;;;;;-0.37;72.25;98932.03;1086551;46;19951;-78
2023/01/19 02:26:54;;;;;;;;;;;;;;;-0.40;72.08;98930.47;1085467;54;19939;-78
2023/01/19 02:27:58;;;;;;;;;;;;;;;-0.44;72.14;98933.38;1085911;54;19957;-77
2023/01/19 02:29:01;;;;;;;;;;;;;;;-0.42;72.42;98931.50;1085886;54;19946;-78
2023/01/19 02:30:05;;;;;;;;;;;;;;;-0.45;72.14;98926.44;1086223;54;19939;-78
2023/01/19 02:31:06;;;;;;;;;;;;;;;-0.46;72.09;98936.13;1086215;54;19947;-78
2023/01/19 02:32:10;;;;;;;;;;;;;;;-0.52;72.57;98924.25;1086027;54;19954;-78
2023/01/19 02:33:11;;;;;;;;;;;;;;;-0.58;72.56;98939.56;1085896;54;20006;-78
2023/01/19 02:34:17;;;;;;;;;;;;;;;-0.55;72.41;98931.50;1086175;54;19998;-77
2023/01/19 02:35:19;;;;;;;;;;;;;;;-0.52;72.59;98933.91;1085950;54;19939;-78
2023/01/19 02:36:24;;;;;;;;;;;;;;;-0.52;72.44;98936.53;1086260;54;19946;-78
2023/01/19 02:37:27;;;;;;;;;;;;;;;-0.57;72.56;98934.22;1086822;54;19951;-78
2023/01/19 02:38:32;;;;;;;;;;;;;;;-0.56;72.71;98929.81;1086120;54;19957;-77
2023/01/19 02:39:37;;;;;;;;;;;;;;;-0.56;72.61;98935.06;1086325;54;19950;-78
2023/01/19 02:40:42;;;;;;;;;;;;;;;-0.49;72.80;98937.19;1086737;54;19941;-79
2023/01/19 02:41:44;;;;;;;;;;;;;;;-0.54;72.50;98934.00;1086981;54;19950;-80
2023/01/19 02:42:50;;;;;;;;;;;;;;;-0.55;72.89;98934.13;1089518;46;19957;-78
2023/01/19 02:43:53;;;;;;;;;;;;;;;-0.48;72.69;98935.38;1086523;54;19950;-79
2023/01/19 02:44:58;;;;;;;;;;;;;;;-0.55;73.11;98929.69;1086834;54;19946;-78
2023/01/19 02:45:59;;;;;;;;;;;;;;;-0.46;72.80;98930.88;1086703;54;19953;-77
2023/01/19 02:47:03;;;;;;;;;;;;;;;-0.44;72.81;98938.66;1086878;54;19952;-78
2023/01/19 02:48:05;;;;;;;;;;;;;;;-0.43;72.78;98930.69;1086711;54;19942;-79
2023/01/19 02:49:09;;;;;;;;;;;;;;;-0.31;72.49;98936.91;1087289;54;19950;-79
2023/01/19 02:50:25;;;;;;;;;;;;;;;-0.26;72.53;98937.41;1087235;54;19942;-78
2023/01/19 02:51:31;;;;;;;;;;;;;;;-0.23;71.82;98942.47;1087112;54;19947;-78
2023/01/19 02:52:32;;;;;;;;;;;;;;;-0.24;71.75;98935.53;1088983;39;20404;-79
2023/01/19 02:53:44;;;;;;;;;;;;;;;-0.34;72.01;98942.34;1087504;54;19973;-79
2023/01/19 02:54:53;;;;;;;;;;;;;;;-0.27;72.23;98934.91;1087385;54;19951;-78
2023/01/19 02:55:59;;;;;;;;;;;;;;;-0.35;72.03;98940.66;1087550;54;19953;-79
2023/01/19 02:57:16;;;;;;;;;;;;;;;-0.41;71.94;98938.44;1087349;54;19950;-79
2023/01/19 02:58:23;;;;;;;;;;;;;;;-0.47;72.15;98935.28;1088096;39;20459;-78
2023/01/19 02:59:34;;;;;;;;;;;;;;;-0.42;72.14;98936.75;1085809;54;19950;-78
2023/01/19 03:00:42;;;;;;;;;;;;;;;-0.42;72.33;98937.59;1086124;54;19970;-78
2023/01/19 03:01:50;;;;;;;;;;;;;;;-0.41;72.20;98941.06;1086230;46;19942;-78
2023/01/19 03:03:01;;;;;;;;;;;;;;;-0.56;72.29;98941.13;1086124;54;19986;-78
2023/01/19 03:04:06;;;;;;;;;;;;;;;-0.53;72.36;98945.38;1086252;54;19947;-81
2023/01/19 03:05:18;;;;;;;;;;;;;;;-0.50;72.37;98948.63;1086086;54;19956;-78
2023/01/19 03:06:25;;;;;;;;;;;;;;;-0.44;72.45;98938.66;1085332;54;19953;-78
2023/01/19 03:07:33;;;;;;;;;;;;;;;-0.54;72.30;98944.50;1086396;54;19950;-78
2023/01/19 03:08:41;;;;;;;;;;;;;;;-0.65;72.72;98947.84;1086057;54;19950;-79
2023/01/19 03:09:51;;;;;;;;;;;;;;;-0.59;72.75;98946.59;1086258;54;19981;-77
2023/01/19 03:10:58;;;;;;;;;;;;;;;-0.59;72.41;98951.84;1086351;54;20562;-78
2023/01/19 03:12:06;;;;;;;;;;;;;;;-0.63;72.30;98948.59;1086730;54;19953;-79
2023/01/19 03:13:10;;;;;;;;;;;;;;;-0.71;72.40;98952.66;1086668;54;19950;-78
2023/01/19 03:14:17;;;;;;;;;;;;;;;-0.73;72.78;98951.91;1086904;54;19951;-79
2023/01/19 03:15:19;;;;;;;;;;;;;;;-0.68;72.84;98955.91;1087488;54;19946;-78
2023/01/19 03:16:26;;;;;;;;;;;;;;;-0.56;72.50;98954.25;1086953;54;19946;-78
2023/01/19 03:17:29;;;;;;;;;;;;;;;-0.50;71.99;98948.63;1086986;54;20902;-78
2023/01/19 03:18:35;;;;;;;;;;;;;;;-0.45;71.73;98944.84;1085931;54;19939;-78
2023/01/19 03:19:39;;;;;;;;;;;;;;;-0.46;71.21;98951.88;1086107;54;19946;-78
2023/01/19 03:20:43;;;;;;;;;;;;;;;-0.42;71.33;98948.09;1086289;54;19939;-78
2023/01/19 03:21:47;;;;;;;;;;;;;;;-0.43;71.00;98961.34;1086511;54;19946;-78
2023/01/19 03:22:53;;;;;;;;;;;;;;;-0.57;71.60;98949.97;1086284;54;19957;-79
2023/01/19 03:24:00;;;;;;;;;;;;;;;-0.67;72.38;98959.41;1087111;39;20408;-79
2023/01/19 03:25:02;;;;;;;;;;;;;;;-0.75;72.74;98959.03;1086143;54;19950;-78
2023/01/19 03:26:11;;;;;;;;;;;;;;;-0.78;72.74;98952.19;1086302;54;19950;-78
2023/01/19 03:27:16;;;;;;;;;;;;;;;-0.83;72.83;98955.13;1086062;54;19978;-78
2023/01/19 03:28:21;;;;;;;;;;;;;;;-0.84;73.16;98956.06;1087783;54;19951;-77
2023/01/19 03:29:23;;;;;;;;;;;;;;;-0.87;73.41;98958.91;1087440;54;20574;-78
2023/01/19 03:30:28;;;;;;;;;;;;;;;-0.74;73.06;98952.84;1086215;54;19939;-78
2023/01/19 03:31:32;;;;;;;;;;;;;;;-0.73;72.51;98959.78;1087321;54;19954;-78
2023/01/19 03:32:38;;;;;;;;;;;;;;;-0.73;72.65;98959.78;1088551;39;20277;-78
2023/01/19 03:33:42;;;;;;;;;;;;;;;-0.79;72.79;98961.88;1087130;54;20348;-78
2023/01/19 03:34:47;;;;;;;;;;;;;;;-0.89;73.15;98955.53;1087024;54;19957;-78
2023/01/19 03:35:51;;;;;;;;;;;;;;;-0.90;72.82;98955.63;1086166;54;19939;-78
2023/01/19 03:36:56;;;;;;;;;;;;;;;-0.86;72.55;98951.84;1086322;54;19950;-79
2023/01/19 03:37:59;;;;;;;;;;;;;;;-0.89;72.41;98957.28;1085852;54;19946;-78
2023/01/19 03:39:05;;;;;;;;;;;;;;;-0.85;72.50;98951.75;1085389;54;19950;-78
2023/01/19 03:40:08;;;;;;;;;;;;;;;-0.91;72.35;98949.53;1086606;46;19970;-78
2023/01/19 03:41:16;;;;;;;;;;;;;;;-0.83;72.37;98954.28;1086787;54;19947;-78
2023/01/19 03:42:18;;;;;;;;;;;;;;;-0.82;72.19;98948.94;1086503;54;19951;-78
2023/01/19 03:43:24;;;;;;;;;;;;;;;-0.90;72.51;98953.84;1086816;47;19946;-79
2023/01/19 03:44:26;;;;;;;;;;;;;;;-0.97;72.68;98953.38;1086551;54;19975;-78
2023/01/19 03:45:32;;;;;;;;;;;;;;;-1.00;72.91;98950.97;1086652;54;19951;-79
2023/01/19 03:46:33;;;;;;;;;;;;;;;-0.91;72.67;98957.41;1087163;54;19983;-78
2023/01/19 03:47:38;;;;;;;;;;;;;;;-0.89;72.54;98944.16;1087125;54;19954;-78
2023/01/19 03:48:39;;;;;;;;;;;;;;;-0.82;72.26;98951.56;1087000;54;19939;-78
2023/01/19 03:49:44;;;;;;;;;;;;;;;-0.80;71.96;98951.44;1086948;54;20037;-78
2023/01/19 03:50:45;;;;;;;;;;;;;;;-0.84;72.14;98948.19;1086791;54;19954;-79
2023/01/19 03:51:50;;;;;;;;;;;;;;;-0.82;72.32;98953.34;1086895;54;19953;-78
2023/01/19 03:53:04;;;;;;;;;;;;;;;-0.95;72.17;98946.25;1086769;54;19969;-78
2023/01/19 03:54:08;;;;;;;;;;;;;;;-0.96;72.11;98956.88;1088167;39;20364;-78
2023/01/19 03:55:09;;;;;;;;;;;;;;;-0.95;72.09;98956.75;1088365;46;19946;-79
2023/01/19 03:56:19;;;;;;;;;;;;;;;-1.04;72.32;98959.97;1087473;54;20006;-78
2023/01/19 03:57:21;;;;;;;;;;;;;;;-1.00;72.48;98963.25;1087682;54;19995;-79
2023/01/19 03:58:24;;;;;;;;;;;;;;;-1.05;72.33;98965.31;1087641;54;19951;-78
2023/01/19 03:59:25;;;;;;;;;;;;;;;-1.00;72.33;98960.63;1087400;54;19950;-78
2023/01/19 04:00:36;;;;;;;;;;;;;;;-1.03;72.20;98960.78;1087819;54;19946;-79
2023/01/19 04:01:37;;;;;;;;;;;;;;;-1.02;72.31;98970.34;1087750;54;19978;-79
2023/01/19 04:02:41;;;;;;;;;;;;;;;-0.96;72.35;98967.38;1088293;46;19950;-79
2023/01/19 04:03:43;;;;;;;;;;;;;;;-0.93;72.05;98967.16;1087900;31;20554;-79
2023/01/19 04:04:46;;;;;;;;;;;;;;;-0.84;72.06;98968.34;1087466;54;20543;-79
2023/01/19 04:05:48;;;;;;;;;;;;;;;-0.93;71.89;98964.53;1087267;54;19958;-79
2023/01/19 04:06:51;;;;;;;;;;;;;;;-1.01;71.96;98966.78;1086567;39;20411;-78
2023/01/19 04:07:53;;;;;;;;;;;;;;;-1.06;72.34;98974.13;1086375;54;19947;-78
2023/01/19 04:08:56;;;;;;;;;;;;;;;-1.01;72.04;98969.41;1086422;54;19938;-78
2023/01/19 04:09:57;;;;;;;;;;;;;;;-0.95;72.23;98969.06;1087345;31;20508;-78
2023/01/19 04:11:01;;;;;;;;;;;;;;;-0.94;71.87;98973.34;1086053;54;19955;-79
2023/01/19 04:12:05;;;;;;;;;;;;;;;-1.10;72.17;98976.94;1086896;39;20415;-79
2023/01/19 04:13:09;;;;;;;;;;;;;;;-1.10;72.36;98969.06;1086744;39;20451;-81
2023/01/19 04:14:10;;;;;;;;;;;;;;;-0.97;72.32;98973.53;1086545;54;19939;-79
2023/01/19 04:15:14;;;;;;;;;;;;;;;-0.89;72.02;98965.16;1086675;54;20143;-78
2023/01/19 04:16:18;;;;;;;;;;;;;;;-0.95;71.76;98971.69;1086418;54;19950;-78
2023/01/19 04:17:22;;;;;;;;;;;;;;;-0.88;71.79;98974.72;1086189;54;19968;-78
2023/01/19 04:18:23;;;;;;;;;;;;;;;-0.80;71.65;98977.69;1086384;54;20491;-79
2023/01/19 04:19:27;;;;;;;;;;;;;;;-0.92;71.88;98975.88;1086393;54;19947;-79
2023/01/19 04:20:28;;;;;;;;;;;;;;;-0.99;72.00;98983.28;1086494;54;19973;-78
2023/01/19 04:21:32;;;;;;;;;;;;;;;-0.97;71.90;98981.41;1086237;54;19981;-79
2023/01/19 04:22:34;;;;;;;;;;;;;;;-0.93;71.49;98984.69;1086208;54;19946;-78
2023/01/19 04:23:38;;;;;;;;;;;;;;;-0.99;71.83;98985.91;1086668;54;19951;-78
2023/01/19 04:24:39;;;;;;;;;;;;;;;-1.10;72.14;98990.06;1086899;54;19988;-79
2023/01/19 04:25:42;;;;;;;;;;;;;;;-1.03;71.88;98984.41;1086600;54;19954;-79
2023/01/19 04:26:43;;;;;;;;;;;;;;;-0.93;71.88;98988.13;1086654;54;19950;-78
2023/01/19 04:27:52;;;;;;;;;;;;;;;-1.08;71.79;98986.50;1087228;39;20317;-78
2023/01/19 04:28:53;;;;;;;;;;;;;;;-1.10;72.07;98987.44;1086035;54;19947;-78
2023/01/19 04:29:59;;;;;;;;;;;;;;;-1.17;72.06;98996.63;1086011;54;19969;-78
2023/01/19 04:31:00;;;;;;;;;;;;;;;-1.27;72.11;98988.47;1086734;54;19942;-79
2023/01/19 04:32:04;;;;;;;;;;;;;;;-1.24;72.03;98984.84;1086874;54;19939;-79
2023/01/19 04:33:05;;;;;;;;;;;;;;;-1.13;71.85;98979.75;1086884;39;20404;-79
2023/01/19 04:34:09;;;;;;;;;;;;;;;-1.10;71.63;98982.19;1086634;54;19998;-79
2023/01/19 04:35:10;;;;;;;;;;;;;;;-1.32;72.10;98977.44;1087217;46;20488;-78
2023/01/19 04:36:13;;;;;;;;;;;;;;;-1.32;72.40;98984.47;1085900;54;19953;-78
2023/01/19 04:37:17;;;;;;;;;;;;;;;-1.29;72.32;98974.63;1089559;39;20368;-79
2023/01/19 04:38:19;;;;;;;;;;;;;;;-1.36;72.24;98989.03;1085784;54;19946;-77
2023/01/19 04:39:22;;;;;;;;;;;;;;;-1.39;72.72;98999.75;1085662;54;20026;-78
2023/01/19 04:40:23;;;;;;;;;;;;;;;-1.35;72.42;98984.66;1085488;54;19951;-77
2023/01/19 04:41:27;;;;;;;;;;;;;;;-1.23;72.33;98980.44;1087048;39;20345;-79
2023/01/19 04:42:28;;;;;;;;;;;;;;;-1.12;71.87;98980.59;1086438;54;19947;-78
2023/01/19 04:43:35;;;;;;;;;;;;;;;-1.22;72.27;98982.94;1086477;54;19958;-79
2023/01/19 04:44:36;;;;;;;;;;;;;;;-1.26;72.11;98984.09;1086331;54;19950;-78
2023/01/19 04:45:39;;;;;;;;;;;;;;;-1.30;72.25;98987.81;1086518;54;20018;-78
2023/01/19 04:46:43;;;;;;;;;;;;;;;-1.28;72.39;98984.19;1087335;39;20448;-79
2023/01/19 04:47:44;;;;;;;;;;;;;;;-1.14;72.07;98988.59;1086747;54;19950;-78
2023/01/19 04:48:48;;;;;;;;;;;;;;;-1.11;71.80;98985.75;1086278;54;19954;-78
2023/01/19 04:49:49;;;;;;;;;;;;;;;-1.21;72.34;98983.81;1086416;54;19969;-78
2023/01/19 04:50:53;;;;;;;;;;;;;;;-1.31;72.59;98986.13;1086358;54;20515;-79
2023/01/19 04:51:54;;;;;;;;;;;;;;;-1.30;72.69;98998.31;1086837;54;19950;-79
2023/01/19 04:54:03;;;;;;;;;;;;;;;-1.22;72.19;98992.59;1085139;54;19970;-78
2023/01/19 04:55:05;;;;;;;;;;;;;;;-1.26;72.83;98989.34;1086808;54;19950;-79
2023/01/19 04:56:09;;;;;;;;;;;;;;;-1.23;72.65;98996.16;1087017;54;19947;-78
2023/01/19 04:57:10;;;;;;;;;;;;;;;-1.25;72.93;98991.03;1086299;54;19950;-78
2023/01/19 04:58:14;;;;;;;;;;;;;;;-1.27;72.80;98996.34;1087360;54;19950;-78
2023/01/19 04:59:19;;;;;;;;;;;;;;;-1.29;73.14;98998.25;1086467;54;20476;-79
2023/01/19 05:00:23;;;;;;;;;;;;;;;-1.31;73.12;99001.88;1086598;54;19946;-79
2023/01/19 05:01:24;;;;;;;;;;;;;;;-1.34;73.37;99000.28;1086025;54;19953;-78
2023/01/19 05:02:28;;;;;;;;;;;;;;;-1.35;73.49;99001.22;1086418;54;19958;-79
2023/01/19 05:06:09;;;;;;;;;;;;;;;-1.33;73.28;98998.53;1087309;54;19960;-78
2023/01/19 05:07:10;;;;;;;;;;;;;;;-1.42;73.75;99003.38;1086781;54;19941;-78
2023/01/19 05:08:14;;;;;;;;;;;;;;;-1.44;73.77;99001.78;1086576;54;19957;-78
2023/01/19 05:09:15;;;;;;;;;;;;;;;-1.38;73.50;99005.81;1086985;54;19939;-79
2023/01/19 05:10:19;;;;;;;;;;;;;;;-1.35;73.27;98998.59;1086881;54;19998;-78
2023/01/19 05:11:20;;;;;;;;;;;;;;;-1.36;73.34;99004.78;1086617;54;19969;-78
2023/01/19 05:12:24;;;;;;;;;;;;;;;-1.38;73.59;99011.06;1086857;54;19995;-78
2023/01/19 05:13:25;;;;;;;;;;;;;;;-1.41;73.51;99007.69;1086366;54;20441;-78
2023/01/19 05:14:31;;;;;;;;;;;;;;;-1.31;73.45;99007.13;1086392;54;19947;-78
2023/01/19 05:15:32;;;;;;;;;;;;;;;-1.36;73.26;99014.44;1085995;54;19951;-77
2023/01/19 05:16:36;;;;;;;;;;;;;;;-1.41;73.69;99012.94;1085750;54;19947;-79
2023/01/19 05:17:37;;;;;;;;;;;;;;;-1.43;73.64;99004.34;1086005;54;19977;-77
2023/01/19 05:18:41;;;;;;;;;;;;;;;-1.31;73.65;99000.13;1085448;54;19947;-78
2023/01/19 05:19:42;;;;;;;;;;;;;;;-1.17;73.30;99009.75;1085421;54;19958;-78
2023/01/19 05:20:46;;;;;;;;;;;;;;;-1.08;72.79;99012.72;1085361;54;19946;-77
2023/01/19 05:21:47;;;;;;;;;;;;;;;-1.10;72.75;99008.41;1085765;54;19946;-78
2023/01/19 05:22:52;;;;;;;;;;;;;;;-1.13;72.83;99010.41;1085397;54;19946;-77
2023/01/19 05:23:53;;;;;;;;;;;;;;;-1.23;73.17;99012.75;1085438;54;20453;-78
2023/01/19 05:24:57;;;;;;;;;;;;;;;-1.25;73.01;99012.00;1085460;54;19986;-78
2023/01/19 05:25:59;;;;;;;;;;;;;;;-1.22;73.02;99011.78;1085627;54;19981;-78
2023/01/19 05:27:03;;;;;;;;;;;;;;;-1.18;73.20;99001.97;1085762;54;19950;-77
2023/01/19 05:28:04;;;;;;;;;;;;;;;-1.20;73.15;99009.94;1085522;47;20453;-78
2023/01/19 05:29:09;;;;;;;;;;;;;;;-1.20;73.05;99004.69;1087293;54;19950;-78
2023/01/19 05:30:13;;;;;;;;;;;;;;;-1.17;72.91;99007.13;1085394;54;19947;-77
2023/01/19 05:31:17;;;;;;;;;;;;;;;-1.23;73.17;99012.75;1085730;54;19945;-78
2023/01/19 05:32:18;;;;;;;;;;;;;;;-1.22;72.91;99008.34;1086023;54;19986;-77
2023/01/19 05:33:21;;;;;;;;;;;;;;;-1.26;73.13;99012.94;1085831;54;19939;-78
2023/01/19 05:34:23;;;;;;;;;;;;;;;-1.10;73.06;99013.66;1085765;54;19951;-77
2023/01/19 05:35:26;;;;;;;;;;;;;;;-1.00;72.55;99019.19;1086088;54;20491;-77
2023/01/19 05:36:28;;;;;;;;;;;;;;;-1.03;72.78;99015.91;1086201;54;19950;-78
2023/01/19 05:37:31;;;;;;;;;;;;;;;-0.92;72.57;99015.25;1086210;54;19950;-77
2023/01/19 05:38:32;;;;;;;;;;;;;;;-1.07;72.35;99019.66;1086463;54;19962;-78
2023/01/19 05:39:38;;;;;;;;;;;;;;;-0.99;72.90;99012.16;1086404;54;19954;-78
2023/01/19 05:40:39;;;;;;;;;;;;;;;-1.03;72.71;99011.50;1086489;54;20491;-78
2023/01/19 05:41:44;;;;;;;;;;;;;;;-1.12;73.06;99020.78;1086585;47;19958;-78
2023/01/19 05:42:45;;;;;;;;;;;;;;;-1.07;73.58;99015.25;1086159;54;19998;-78
2023/01/19 05:43:49;;;;;;;;;;;;;;;-1.05;73.39;99012.53;1086195;54;19946;-78
2023/01/19 05:44:50;;;;;;;;;;;;;;;-0.97;73.03;99013.72;1086585;54;19962;-78
2023/01/19 05:45:56;;;;;;;;;;;;;;;-0.93;72.65;99011.75;1086055;54;19947;-77
2023/01/19 05:46:57;;;;;;;;;;;;;;;-0.83;72.50;99022.53;1087607;39;20376;-78